sensor_id;sensor_type;location;lat;lon;timestamp;noise_LAeq;noise_LA_min;noise_LA_max;noise_LA01;noise_LA95
84588;Laerm;74812;47.466;8.992;2024-01-15T00:01:05;35.95;26.91;54.14;;
84588;Laerm;74812;47.466;8.992;2024-01-15T00:03:30;35.96;26.91;40.53;;
84588;Laerm;74812;47.466;8.992;2024-01-15T00:05:56;36.04;23.90;40.13;;
84588;Laerm;74812;47.466;8.992;2024-01-15T00:08:21;35.85;26.91;39.58;;
84588;Laerm;74812;47.466;8.992;2024-01-15T00:10:46;35.77;26.91;40.13;;
84588;Laerm;74812;47.466;8.992;2024-01-15T00:13:12;36.06;26.91;40.03;;
84588;Laerm;74812;47.466;8.992;2024-01-15T00:15:37;35.82;5.00;48.32;;
84588;Laerm;74812;47.466;8.992;2024-01-15T00:18:03;35.79;23.90;39.46;;
84588;Laerm;74812;47.466;8.992;2024-01-15T00:20:28;36.19;26.91;39.81;;
84588;Laerm;74812;47.466;8.992;2024-01-15T00:22:53;36.01;26.91;53.13;;
84588;Laerm;74812;47.466;8.992;2024-01-15T00:25:19;36.20;26.91;40.43;;
84588;Laerm;74812;47.466;8.992;2024-01-15T00:27:44;36.11;23.90;41.46;;
84588;Laerm;74812;47.466;8.992;2024-01-15T00:30:10;35.99;23.90;39.81;;
84588;Laerm;74812;47.466;8.992;2024-01-15T00:32:35;36.03;23.90;40.62;;
84588;Laerm;74812;47.466;8.992;2024-01-15T00:35:01;35.96;23.90;41.06;;
84588;Laerm;74812;47.466;8.992;2024-01-15T00:37:26;35.89;26.91;48.61;;
84588;Laerm;74812;47.466;8.992;2024-01-15T00:39:51;35.73;23.90;39.58;;
84588;Laerm;74812;47.466;8.992;2024-01-15T00:42:17;36.11;23.90;54.23;;
84588;Laerm;74812;47.466;8.992;2024-01-15T00:44:43;35.78;23.90;39.21;;
84588;Laerm;74812;47.466;8.992;2024-01-15T00:47:08;35.68;23.90;39.21;;
84588;Laerm;74812;47.466;8.992;2024-01-15T00:49:33;35.70;26.91;40.18;;
84588;Laerm;74812;47.466;8.992;2024-01-15T00:51:59;36.06;28.67;39.70;;
84588;Laerm;74812;47.466;8.992;2024-01-15T00:54:24;35.98;26.91;39.70;;
84588;Laerm;74812;47.466;8.992;2024-01-15T00:56:49;35.72;23.90;39.21;;
84588;Laerm;74812;47.466;8.992;2024-01-15T00:59:15;35.69;23.90;48.32;;
84588;Laerm;74812;47.466;8.992;2024-01-15T01:01:40;35.57;23.90;40.53;;
84588;Laerm;74812;47.466;8.992;2024-01-15T01:04:08;35.68;5.00;53.75;;
84588;Laerm;74812;47.466;8.992;2024-01-15T01:06:34;35.61;26.91;39.46;;
84588;Laerm;74812;47.466;8.992;2024-01-15T01:08:59;35.69;23.90;38.95;;
84588;Laerm;74812;47.466;8.992;2024-01-15T01:11:24;35.58;23.90;39.08;;
84588;Laerm;74812;47.466;8.992;2024-01-15T01:13:50;35.66;23.90;39.21;;
84588;Laerm;74812;47.466;8.992;2024-01-15T01:16:15;35.76;26.91;39.08;;
84588;Laerm;74812;47.466;8.992;2024-01-15T01:18:40;35.90;5.00;49.35;;
84588;Laerm;74812;47.466;8.992;2024-01-15T01:21:06;35.61;26.91;39.08;;
84588;Laerm;74812;47.466;8.992;2024-01-15T01:23:31;35.81;26.91;39.34;;
84588;Laerm;74812;47.466;8.992;2024-01-15T01:25:56;35.79;23.90;53.99;;
84588;Laerm;74812;47.466;8.992;2024-01-15T01:28:22;35.56;5.00;39.08;;
84588;Laerm;74812;47.466;8.992;2024-01-15T01:30:47;35.63;23.90;39.08;;
84588;Laerm;74812;47.466;8.992;2024-01-15T01:33:12;35.69;23.90;39.11;;
84588;Laerm;74812;47.466;8.992;2024-01-15T01:35:38;35.84;26.91;40.80;;
84588;Laerm;74812;47.466;8.992;2024-01-15T01:38:03;35.73;26.91;39.08;;
84588;Laerm;74812;47.466;8.992;2024-01-15T01:40:28;35.83;26.91;49.32;;
84588;Laerm;74812;47.466;8.992;2024-01-15T01:42:54;35.69;26.91;40.62;;
84588;Laerm;74812;47.466;8.992;2024-01-15T01:45:19;35.77;26.56;53.63;;
84588;Laerm;74812;47.466;8.992;2024-01-15T01:47:44;35.72;26.91;39.34;;
84588;Laerm;74812;47.466;8.992;2024-01-15T01:50:10;35.71;28.67;39.08;;
84588;Laerm;74812;47.466;8.992;2024-01-15T01:52:36;35.79;23.90;39.70;;
84588;Laerm;74812;47.466;8.992;2024-01-15T01:55:02;35.61;23.90;39.08;;
84588;Laerm;74812;47.466;8.992;2024-01-15T01:57:28;35.59;28.67;39.34;;
84588;Laerm;74812;47.466;8.992;2024-01-15T01:59:54;35.71;26.91;49.41;;
84588;Laerm;74812;47.466;8.992;2024-01-15T02:02:20;35.51;23.90;39.46;;
84588;Laerm;74812;47.466;8.992;2024-01-15T02:04:46;35.51;26.91;39.21;;
84588;Laerm;74812;47.466;8.992;2024-01-15T02:07:12;35.74;26.91;53.79;;
84588;Laerm;74812;47.466;8.992;2024-01-15T02:09:38;35.68;23.90;39.35;;
84588;Laerm;74812;47.466;8.992;2024-01-15T02:12:03;35.72;23.90;39.21;;
84588;Laerm;74812;47.466;8.992;2024-01-15T02:14:28;35.71;26.91;39.46;;
84588;Laerm;74812;47.466;8.992;2024-01-15T02:16:54;35.52;26.91;39.08;;
84588;Laerm;74812;47.466;8.992;2024-01-15T02:19:19;35.57;23.90;39.46;;
84588;Laerm;74812;47.466;8.992;2024-01-15T02:21:45;35.79;26.91;49.34;;
84588;Laerm;74812;47.466;8.992;2024-01-15T02:24:10;35.72;26.91;39.21;;
84588;Laerm;74812;47.466;8.992;2024-01-15T02:26:36;36.01;28.67;53.14;;
84588;Laerm;74812;47.466;8.992;2024-01-15T02:29:03;35.68;26.91;40.23;;
84588;Laerm;74812;47.466;8.992;2024-01-15T02:31:28;35.80;23.90;39.46;;
84588;Laerm;74812;47.466;8.992;2024-01-15T02:33:54;35.76;26.91;38.95;;
84588;Laerm;74812;47.466;8.992;2024-01-15T02:36:19;35.75;23.90;39.34;;
84588;Laerm;74812;47.466;8.992;2024-01-15T02:38:44;36.08;26.91;39.46;;
84588;Laerm;74812;47.466;8.992;2024-01-15T02:41:10;36.02;26.91;49.45;;
84588;Laerm;74812;47.466;8.992;2024-01-15T02:43:35;35.77;23.90;39.46;;
84588;Laerm;74812;47.466;8.992;2024-01-15T02:46:01;35.89;26.91;52.62;;
84588;Laerm;74812;47.466;8.992;2024-01-15T02:48:26;35.71;26.91;39.81;;
84588;Laerm;74812;47.466;8.992;2024-01-15T02:50:51;35.76;23.90;39.46;;
84588;Laerm;74812;47.466;8.992;2024-01-15T02:53:17;35.85;28.67;39.46;;
84588;Laerm;74812;47.466;8.992;2024-01-15T02:55:42;35.99;26.91;40.13;;
84588;Laerm;74812;47.466;8.992;2024-01-15T02:58:07;35.73;23.90;39.21;;
84588;Laerm;74812;47.466;8.992;2024-01-15T03:00:33;35.74;23.55;49.51;;
84588;Laerm;74812;47.466;8.992;2024-01-15T03:02:58;35.70;5.00;39.21;;
84588;Laerm;74812;47.466;8.992;2024-01-15T03:05:23;35.84;23.90;53.42;;
84588;Laerm;74812;47.466;8.992;2024-01-15T03:07:49;35.77;26.91;39.21;;
84588;Laerm;74812;47.466;8.992;2024-01-15T03:10:14;45.94;23.90;70.63;;
84588;Laerm;74812;47.466;8.992;2024-01-15T03:12:39;35.65;28.32;39.21;;
84588;Laerm;74812;47.466;8.992;2024-01-15T03:15:05;35.82;23.90;39.70;;
84588;Laerm;74812;47.466;8.992;2024-01-15T03:17:31;36.66;28.67;42.74;;
84588;Laerm;74812;47.466;8.992;2024-01-15T03:19:56;36.11;5.00;50.32;;
84588;Laerm;74812;47.466;8.992;2024-01-15T03:22:21;36.10;26.91;39.92;;
84588;Laerm;74812;47.466;8.992;2024-01-15T03:24:46;36.02;28.67;40.53;;
84588;Laerm;74812;47.466;8.992;2024-01-15T03:27:12;36.34;23.90;53.79;;
84588;Laerm;74812;47.466;8.992;2024-01-15T03:29:37;36.07;26.91;40.03;;
84588;Laerm;74812;47.466;8.992;2024-01-15T03:32:02;36.52;23.90;40.23;;
84588;Laerm;74812;47.466;8.992;2024-01-15T03:34:28;36.41;23.90;44.83;;
84588;Laerm;74812;47.466;8.992;2024-01-15T03:36:53;36.24;23.90;39.58;;
84588;Laerm;74812;47.466;8.992;2024-01-15T03:39:19;36.41;23.90;49.49;;
84588;Laerm;74812;47.466;8.992;2024-01-15T03:41:44;37.03;28.67;42.98;;
84588;Laerm;74812;47.466;8.992;2024-01-15T03:44:10;36.59;28.67;41.46;;
84588;Laerm;74812;47.466;8.992;2024-01-15T03:46:35;36.07;23.90;53.44;;
84588;Laerm;74812;47.466;8.992;2024-01-15T03:49:00;36.03;28.67;39.34;;
84588;Laerm;74812;47.466;8.992;2024-01-15T03:51:26;36.06;23.90;39.58;;
84588;Laerm;74812;47.466;8.992;2024-01-15T03:53:51;36.44;26.56;40.43;;
84588;Laerm;74812;47.466;8.992;2024-01-15T03:56:16;36.02;23.90;39.21;;
84588;Laerm;74812;47.466;8.992;2024-01-15T03:58:42;35.97;26.91;50.26;;
84588;Laerm;74812;47.466;8.992;2024-01-15T04:01:08;36.57;26.91;40.71;;
84588;Laerm;74812;47.466;8.992;2024-01-15T04:03:33;36.28;28.67;41.89;;
84588;Laerm;74812;47.466;8.992;2024-01-15T04:05:59;36.81;29.92;53.69;;
84588;Laerm;74812;47.466;8.992;2024-01-15T04:08:24;36.47;28.67;40.23;;
84588;Laerm;74812;47.466;8.992;2024-01-15T04:10:49;36.38;28.67;39.81;;
84588;Laerm;74812;47.466;8.992;2024-01-15T04:13:15;36.64;26.91;39.92;;
84588;Laerm;74812;47.466;8.992;2024-01-15T04:15:40;36.67;28.67;47.42;;
84588;Laerm;74812;47.466;8.992;2024-01-15T04:18:05;36.39;29.92;48.37;;
84588;Laerm;74812;47.466;8.992;2024-01-15T04:20:31;36.53;29.92;39.70;;
84588;Laerm;74812;47.466;8.992;2024-01-15T04:22:56;37.08;23.90;40.98;;
84588;Laerm;74812;47.466;8.992;2024-01-15T04:25:21;36.84;29.92;53.90;;
84588;Laerm;74812;47.466;8.992;2024-01-15T04:27:47;36.69;28.67;40.03;;
84588;Laerm;74812;47.466;8.992;2024-01-15T04:30:12;36.58;26.91;40.03;;
84588;Laerm;74812;47.466;8.992;2024-01-15T04:32:37;36.43;28.67;40.33;;
84588;Laerm;74812;47.466;8.992;2024-01-15T04:35:03;36.51;26.91;41.06;;
84588;Laerm;74812;47.466;8.992;2024-01-15T04:37:28;36.78;23.90;48.91;;
84588;Laerm;74812;47.466;8.992;2024-01-15T04:39:54;37.46;26.91;45.07;;
84588;Laerm;74812;47.466;8.992;2024-01-15T04:42:23;36.64;28.67;40.43;;
84588;Laerm;74812;47.466;8.992;2024-01-15T04:44:48;36.70;26.91;52.59;;
84588;Laerm;74812;47.466;8.992;2024-01-15T04:47:14;36.57;28.67;40.43;;
84588;Laerm;74812;47.466;8.992;2024-01-15T04:49:39;36.49;28.67;40.13;;
84588;Laerm;74812;47.466;8.992;2024-01-15T04:52:04;36.48;28.67;39.58;;
84588;Laerm;74812;47.466;8.992;2024-01-15T04:54:30;37.30;26.91;42.82;;
84588;Laerm;74812;47.466;8.992;2024-01-15T04:56:55;37.53;28.67;48.45;;
84588;Laerm;74812;47.466;8.992;2024-01-15T04:59:20;36.94;29.92;41.30;;
84588;Laerm;74812;47.466;8.992;2024-01-15T05:01:46;36.48;26.91;40.03;;
84588;Laerm;74812;47.466;8.992;2024-01-15T05:04:11;37.76;29.92;52.86;;
84588;Laerm;74812;47.466;8.992;2024-01-15T05:06:36;38.51;26.91;43.34;;
84588;Laerm;74812;47.466;8.992;2024-01-15T05:09:01;37.63;28.67;44.47;;
84588;Laerm;74812;47.466;8.992;2024-01-15T05:11:28;37.52;28.67;42.88;;
84588;Laerm;74812;47.466;8.992;2024-01-15T05:13:53;38.01;28.67;43.39;;
84588;Laerm;74812;47.466;8.992;2024-01-15T05:16:19;36.74;5.00;49.71;;
84588;Laerm;74812;47.466;8.992;2024-01-15T05:18:44;37.17;28.67;42.98;;
84588;Laerm;74812;47.466;8.992;2024-01-15T05:21:09;38.04;29.92;44.69;;
84588;Laerm;74812;47.466;8.992;2024-01-15T05:23:34;37.79;28.67;53.83;;
84588;Laerm;74812;47.466;8.992;2024-01-15T05:26:00;37.19;26.91;40.62;;
84588;Laerm;74812;47.466;8.992;2024-01-15T05:28:25;36.59;26.91;39.81;;
84588;Laerm;74812;47.466;8.992;2024-01-15T05:30:50;37.16;28.67;43.44;;
84588;Laerm;74812;47.466;8.992;2024-01-15T05:33:16;37.05;29.92;41.75;;
84588;Laerm;74812;47.466;8.992;2024-01-15T05:35:42;37.70;29.92;55.84;;
84588;Laerm;74812;47.466;8.992;2024-01-15T05:38:07;37.40;28.67;48.78;;
84588;Laerm;74812;47.466;8.992;2024-01-15T05:40:33;39.10;30.54;61.09;;
84588;Laerm;74812;47.466;8.992;2024-01-15T05:42:58;38.83;28.67;58.60;;
84588;Laerm;74812;47.466;8.992;2024-01-15T05:45:25;37.49;28.67;47.28;;
84588;Laerm;74812;47.466;8.992;2024-01-15T05:47:51;37.38;30.89;52.95;;
84588;Laerm;74812;47.466;8.992;2024-01-15T05:50:16;37.29;26.91;50.21;;
84588;Laerm;74812;47.466;8.992;2024-01-15T05:52:41;37.22;26.91;42.65;;
84588;Laerm;74812;47.466;8.992;2024-01-15T05:55:07;37.12;26.91;48.94;;
84588;Laerm;74812;47.466;8.992;2024-01-15T05:57:32;36.91;29.92;43.19;;
84588;Laerm;74812;47.466;8.992;2024-01-15T05:59:57;37.46;29.92;53.76;;
84588;Laerm;74812;47.466;8.992;2024-01-15T06:02:23;37.97;29.92;53.10;;
84588;Laerm;74812;47.466;8.992;2024-01-15T06:04:48;38.12;30.89;47.91;;
84588;Laerm;74812;47.466;8.992;2024-01-15T06:07:13;37.62;23.90;50.16;;
84588;Laerm;74812;47.466;8.992;2024-01-15T06:09:39;38.37;28.67;49.40;;
84588;Laerm;74812;47.466;8.992;2024-01-15T06:12:04;39.13;31.68;51.73;;
84588;Laerm;74812;47.466;8.992;2024-01-15T06:14:30;39.49;28.67;61.45;;
84588;Laerm;74812;47.466;8.992;2024-01-15T06:16:55;40.07;31.68;61.40;;
84588;Laerm;74812;47.466;8.992;2024-01-15T06:19:21;38.92;29.92;53.21;;
84588;Laerm;74812;47.466;8.992;2024-01-15T06:21:46;38.37;30.89;50.19;;
84588;Laerm;74812;47.466;8.992;2024-01-15T06:24:11;38.29;29.57;48.26;;
84588;Laerm;74812;47.466;8.992;2024-01-15T06:26:38;37.93;29.92;46.71;;
84588;Laerm;74812;47.466;8.992;2024-01-15T06:29:03;38.13;29.92;45.14;;
84588;Laerm;74812;47.466;8.992;2024-01-15T06:31:29;38.71;30.89;57.10;;
84588;Laerm;74812;47.466;8.992;2024-01-15T06:33:55;37.75;29.92;48.43;;
84588;Laerm;74812;47.466;8.992;2024-01-15T06:36:20;38.31;29.92;53.50;;
84588;Laerm;74812;47.466;8.992;2024-01-15T06:38:45;48.38;30.89;71.06;;
84588;Laerm;74812;47.466;8.992;2024-01-15T06:41:11;39.12;26.91;51.31;;
84588;Laerm;74812;47.466;8.992;2024-01-15T06:43:36;38.68;30.89;53.04;;
84588;Laerm;74812;47.466;8.992;2024-01-15T06:46:01;37.90;31.68;44.47;;
84588;Laerm;74812;47.466;8.992;2024-01-15T06:48:28;38.12;29.92;53.89;;
84588;Laerm;74812;47.466;8.992;2024-01-15T06:50:53;38.16;26.91;54.36;;
84588;Laerm;74812;47.466;8.992;2024-01-15T06:53:19;38.89;29.92;50.66;;
84588;Laerm;74812;47.466;8.992;2024-01-15T06:55:44;39.18;28.67;59.54;;
84588;Laerm;74812;47.466;8.992;2024-01-15T06:58:10;37.58;28.67;54.14;;
84588;Laerm;74812;47.466;8.992;2024-01-15T07:00:35;40.24;30.89;47.00;;
84588;Laerm;74812;47.466;8.992;2024-01-15T07:03:00;37.93;29.92;54.17;;
84588;Laerm;74812;47.466;8.992;2024-01-15T07:05:26;37.45;29.92;45.14;;
84588;Laerm;74812;47.466;8.992;2024-01-15T07:07:51;37.89;26.91;46.73;;
84588;Laerm;74812;47.466;8.992;2024-01-15T07:10:16;38.61;31.68;50.11;;
84588;Laerm;74812;47.466;8.992;2024-01-15T07:12:42;38.35;30.89;49.94;;
84588;Laerm;74812;47.466;8.992;2024-01-15T07:15:08;39.27;32.35;51.44;;
84588;Laerm;74812;47.466;8.992;2024-01-15T07:17:34;38.78;28.67;57.07;;
84588;Laerm;74812;47.466;8.992;2024-01-15T07:19:59;38.02;28.67;47.57;;
84588;Laerm;74812;47.466;8.992;2024-01-15T07:22:25;39.35;23.90;55.66;;
84588;Laerm;74812;47.466;8.992;2024-01-15T07:24:50;39.98;29.92;59.15;;
84588;Laerm;74812;47.466;8.992;2024-01-15T07:27:15;42.54;26.91;60.18;;
84588;Laerm;74812;47.466;8.992;2024-01-15T07:29:41;37.83;30.89;48.73;;
84588;Laerm;74812;47.466;8.992;2024-01-15T07:32:07;38.25;30.89;52.95;;
84588;Laerm;74812;47.466;8.992;2024-01-15T07:34:33;37.24;29.92;52.45;;
84588;Laerm;74812;47.466;8.992;2024-01-15T07:36:58;37.38;26.91;53.04;;
84588;Laerm;74812;47.466;8.992;2024-01-15T07:39:23;37.60;30.89;48.40;;
84588;Laerm;74812;47.466;8.992;2024-01-15T07:41:50;48.35;32.93;73.63;;
84588;Laerm;74812;47.466;8.992;2024-01-15T07:44:15;39.39;32.35;61.74;;
84588;Laerm;74812;47.466;8.992;2024-01-15T07:46:43;38.26;30.89;50.08;;
84588;Laerm;74812;47.466;8.992;2024-01-15T07:49:09;39.06;31.68;60.03;;
84588;Laerm;74812;47.466;8.992;2024-01-15T07:51:34;41.93;29.92;57.91;;
84588;Laerm;74812;47.466;8.992;2024-01-15T07:53:59;42.17;31.68;58.26;;
84588;Laerm;74812;47.466;8.992;2024-01-15T07:56:25;38.06;28.67;53.60;;
84588;Laerm;74812;47.466;8.992;2024-01-15T07:58:52;37.36;28.67;50.68;;
84588;Laerm;74812;47.466;8.992;2024-01-15T08:01:17;37.28;29.92;41.75;;
84588;Laerm;74812;47.466;8.992;2024-01-15T08:03:43;36.99;28.67;40.62;;
84588;Laerm;74812;47.466;8.992;2024-01-15T08:06:08;37.32;29.92;45.01;;
84588;Laerm;74812;47.466;8.992;2024-01-15T08:08:35;37.23;29.92;49.16;;
84588;Laerm;74812;47.466;8.992;2024-01-15T08:11:00;37.36;30.89;51.13;;
84588;Laerm;74812;47.466;8.992;2024-01-15T08:13:26;36.94;28.67;48.36;;
84588;Laerm;74812;47.466;8.992;2024-01-15T08:15:51;38.50;29.92;52.74;;
84588;Laerm;74812;47.466;8.992;2024-01-15T08:18:17;37.18;26.91;43.04;;
84588;Laerm;74812;47.466;8.992;2024-01-15T08:20:42;36.91;28.67;44.23;;
84588;Laerm;74812;47.466;8.992;2024-01-15T08:23:07;37.01;29.92;40.89;;
84588;Laerm;74812;47.466;8.992;2024-01-15T08:25:33;38.48;28.67;43.39;;
84588;Laerm;74812;47.466;8.992;2024-01-15T08:27:59;38.83;29.92;54.47;;
84588;Laerm;74812;47.466;8.992;2024-01-15T08:30:24;37.31;28.67;40.43;;
84588;Laerm;74812;47.466;8.992;2024-01-15T08:32:55;37.48;29.92;41.89;;
84588;Laerm;74812;47.466;8.992;2024-01-15T08:35:20;37.04;30.89;52.90;;
84588;Laerm;74812;47.466;8.992;2024-01-15T08:37:50;37.40;26.91;43.63;;
84588;Laerm;74812;47.466;8.992;2024-01-15T08:40:16;41.30;30.89;63.00;;
84588;Laerm;74812;47.466;8.992;2024-01-15T08:42:42;37.68;26.91;46.69;;
84588;Laerm;74812;47.466;8.992;2024-01-15T08:45:07;38.97;29.92;52.29;;
84588;Laerm;74812;47.466;8.992;2024-01-15T08:47:33;37.70;29.92;49.03;;
84588;Laerm;74812;47.466;8.992;2024-01-15T08:49:59;42.61;29.92;69.37;;
84588;Laerm;74812;47.466;8.992;2024-01-15T08:52:25;37.25;31.68;41.22;;
84588;Laerm;74812;47.466;8.992;2024-01-15T08:54:50;37.41;28.67;53.64;;
84588;Laerm;74812;47.466;8.992;2024-01-15T08:57:15;37.48;30.89;41.75;;
84588;Laerm;74812;47.466;8.992;2024-01-15T08:59:41;38.38;30.89;55.68;;
84588;Laerm;74812;47.466;8.992;2024-01-15T09:02:06;40.13;26.91;45.97;;
84588;Laerm;74812;47.466;8.992;2024-01-15T09:04:32;39.44;29.92;57.74;;
84588;Laerm;74812;47.466;8.992;2024-01-15T09:06:58;47.79;29.92;71.30;;
84588;Laerm;74812;47.466;8.992;2024-01-15T09:09:23;38.45;29.92;55.89;;
84588;Laerm;74812;47.466;8.992;2024-01-15T09:11:49;46.47;30.89;71.38;;
84588;Laerm;74812;47.466;8.992;2024-01-15T09:14:14;40.25;29.92;64.77;;
84588;Laerm;74812;47.466;8.992;2024-01-15T09:16:40;38.76;30.54;51.87;;
84588;Laerm;74812;47.466;8.992;2024-01-15T09:19:05;37.82;29.92;46.38;;
84588;Laerm;74812;47.466;8.992;2024-01-15T09:21:31;37.61;26.91;47.68;;
84588;Laerm;74812;47.466;8.992;2024-01-15T09:23:56;38.60;28.67;50.49;;
84588;Laerm;74812;47.466;8.992;2024-01-15T09:26:21;41.19;28.67;62.43;;
84588;Laerm;74812;47.466;8.992;2024-01-15T09:28:47;43.22;30.89;69.30;;
84588;Laerm;74812;47.466;8.992;2024-01-15T09:31:12;52.28;33.44;78.97;;
84588;Laerm;74812;47.466;8.992;2024-01-15T09:33:37;39.51;32.35;59.77;;
84588;Laerm;74812;47.466;8.992;2024-01-15T09:36:03;38.82;32.93;43.29;;
84588;Laerm;74812;47.466;8.992;2024-01-15T09:38:29;41.83;33.44;62.97;;
84588;Laerm;74812;47.466;8.992;2024-01-15T09:40:54;55.12;33.44;84.34;;
84588;Laerm;74812;47.466;8.992;2024-01-15T09:43:20;52.93;33.90;81.22;;
84588;Laerm;74812;47.466;8.992;2024-01-15T09:45:46;52.21;39.70;65.95;;
84588;Laerm;74812;47.466;8.992;2024-01-15T09:48:11;58.84;36.20;74.58;;
84588;Laerm;74812;47.466;8.992;2024-01-15T09:50:37;60.82;40.33;70.11;;
84588;Laerm;74812;47.466;8.992;2024-01-15T09:53:03;58.22;34.31;75.69;;
84588;Laerm;74812;47.466;8.992;2024-01-15T09:55:29;50.46;33.44;77.86;;
84588;Laerm;74812;47.466;8.992;2024-01-15T09:57:54;46.68;33.90;69.22;;
84588;Laerm;74812;47.466;8.992;2024-01-15T10:00:20;47.64;40.43;66.00;;
84588;Laerm;74812;47.466;8.992;2024-01-15T10:02:45;43.18;41.14;51.89;;
84588;Laerm;74812;47.466;8.992;2024-01-15T10:05:11;43.17;41.38;58.01;;
84588;Laerm;74812;47.466;8.992;2024-01-15T10:07:37;47.66;41.03;66.10;;
84588;Laerm;74812;47.466;8.992;2024-01-15T10:10:02;43.17;41.46;51.06;;
84588;Laerm;74812;47.466;8.992;2024-01-15T10:12:28;50.70;32.35;73.75;;
84588;Laerm;74812;47.466;8.992;2024-01-15T10:14:55;39.61;32.93;57.35;;
84588;Laerm;74812;47.466;8.992;2024-01-15T10:17:21;39.43;32.93;58.26;;
84588;Laerm;74812;47.466;8.992;2024-01-15T10:19:46;39.86;32.35;58.33;;
84588;Laerm;74812;47.466;8.992;2024-01-15T10:22:13;39.53;31.68;61.62;;
84588;Laerm;74812;47.466;8.992;2024-01-15T10:24:39;40.62;33.44;67.13;;
84588;Laerm;74812;47.466;8.992;2024-01-15T10:27:58;47.65;43.77;59.36;;
84588;Laerm;74812;47.466;8.992;2024-01-15T10:30:24;62.18;43.90;78.75;;
84588;Laerm;74812;47.466;8.992;2024-01-15T10:32:59;52.77;43.90;79.14;;
84588;Laerm;74812;47.466;8.992;2024-01-15T10:35:34;47.71;43.90;63.04;;
84588;Laerm;74812;47.466;8.992;2024-01-15T10:38:00;52.96;44.62;69.85;;
84588;Laerm;74812;47.466;8.992;2024-01-15T10:40:25;53.62;43.86;71.88;;
84588;Laerm;74812;47.466;8.992;2024-01-15T10:42:51;49.96;44.35;62.18;;
84588;Laerm;74812;47.466;8.992;2024-01-15T10:45:16;47.20;43.99;58.89;;
84588;Laerm;74812;47.466;8.992;2024-01-15T10:47:42;46.15;43.63;55.77;;
84588;Laerm;74812;47.466;8.992;2024-01-15T10:50:08;46.11;43.58;55.40;;
84588;Laerm;74812;47.466;8.992;2024-01-15T10:52:34;46.92;44.03;56.44;;
84588;Laerm;74812;47.466;8.992;2024-01-15T10:55:00;48.77;43.77;62.72;;
84588;Laerm;74812;47.466;8.992;2024-01-15T10:57:26;53.70;44.27;80.83;;
84588;Laerm;74812;47.466;8.992;2024-01-15T10:59:51;53.23;44.23;69.59;;
84588;Laerm;74812;47.466;8.992;2024-01-15T11:02:16;56.32;44.07;76.77;;
84588;Laerm;74812;47.466;8.992;2024-01-15T11:04:42;55.03;44.31;74.12;;
84588;Laerm;74812;47.466;8.992;2024-01-15T11:07:38;50.76;44.03;65.96;;
84588;Laerm;74812;47.466;8.992;2024-01-15T11:10:04;51.95;44.19;66.87;;
84588;Laerm;74812;47.466;8.992;2024-01-15T11:12:30;51.51;44.19;63.34;;
84588;Laerm;74812;47.466;8.992;2024-01-15T11:15:03;46.63;43.63;53.45;;
84588;Laerm;74812;47.466;8.992;2024-01-15T11:20:18;46.44;43.90;59.82;;
84588;Laerm;74812;47.466;8.992;2024-01-15T11:25:15;46.77;43.58;64.79;;
84588;Laerm;74812;47.466;8.992;2024-01-15T11:30:10;45.94;43.58;61.40;;
84588;Laerm;74812;47.466;8.992;2024-01-15T11:32:37;45.87;43.29;55.37;;
84588;Laerm;74812;47.466;8.992;2024-01-15T11:35:06;45.61;43.09;56.32;;
84588;Laerm;74812;47.466;8.992;2024-01-15T11:40:38;46.37;42.65;56.71;;
84588;Laerm;74812;47.466;8.992;2024-01-15T11:43:04;53.97;43.34;72.68;;
84588;Laerm;74812;47.466;8.992;2024-01-15T11:45:30;46.93;43.64;55.57;;
84588;Laerm;74812;47.466;8.992;2024-01-15T11:50:24;47.23;43.44;57.87;;
84588;Laerm;74812;47.466;8.992;2024-01-15T11:52:56;47.63;44.23;55.23;;
84588;Laerm;74812;47.466;8.992;2024-01-15T11:55:33;52.50;43.68;70.75;;
84588;Laerm;74812;47.466;8.992;2024-01-15T11:58:00;52.56;44.11;68.95;;
84588;Laerm;74812;47.466;8.992;2024-01-15T12:00:26;48.14;44.35;58.20;;
84588;Laerm;74812;47.466;8.992;2024-01-15T12:02:52;50.00;43.54;60.77;;
84588;Laerm;74812;47.466;8.992;2024-01-15T12:05:18;47.50;44.39;59.78;;
84588;Laerm;74812;47.466;8.992;2024-01-15T12:07:45;47.63;44.51;59.02;;
84588;Laerm;74812;47.466;8.992;2024-01-15T12:10:20;47.40;44.07;57.04;;
84588;Laerm;74812;47.466;8.992;2024-01-15T12:15:11;51.15;44.73;71.01;;
84588;Laerm;74812;47.466;8.992;2024-01-15T12:17:37;53.51;44.73;77.42;;
84588;Laerm;74812;47.466;8.992;2024-01-15T12:20:04;51.48;44.73;65.06;;
84588;Laerm;74812;47.466;8.992;2024-01-15T12:22:29;52.73;44.97;68.08;;
84588;Laerm;74812;47.466;8.992;2024-01-15T12:24:55;54.45;44.15;71.65;;
84588;Laerm;74812;47.466;8.992;2024-01-15T12:27:20;48.60;43.94;63.18;;
84588;Laerm;74812;47.466;8.992;2024-01-15T12:29:46;49.97;43.86;65.48;;
84588;Laerm;74812;47.466;8.992;2024-01-15T12:32:12;48.25;44.76;58.41;;
84588;Laerm;74812;47.466;8.992;2024-01-15T12:34:37;48.32;44.34;70.25;;
84588;Laerm;74812;47.466;8.992;2024-01-15T12:37:03;47.52;44.31;61.69;;
84588;Laerm;74812;47.466;8.992;2024-01-15T12:39:28;52.94;44.83;66.41;;
84588;Laerm;74812;47.466;8.992;2024-01-15T12:41:54;52.60;44.11;70.81;;
84588;Laerm;74812;47.466;8.992;2024-01-15T12:44:20;55.22;43.77;70.24;;
84588;Laerm;74812;47.466;8.992;2024-01-15T12:46:45;49.43;43.58;63.08;;
84588;Laerm;74812;47.466;8.992;2024-01-15T12:49:11;47.17;43.51;60.03;;
84588;Laerm;74812;47.466;8.992;2024-01-15T12:51:38;50.50;43.39;66.78;;
84588;Laerm;74812;47.466;8.992;2024-01-15T12:54:04;52.26;44.19;68.42;;
84588;Laerm;74812;47.466;8.992;2024-01-15T12:56:29;52.39;43.77;68.06;;
84588;Laerm;74812;47.466;8.992;2024-01-15T12:58:54;46.45;43.29;58.49;;
84588;Laerm;74812;47.466;8.992;2024-01-15T13:01:20;47.08;43.49;60.88;;
84588;Laerm;74812;47.466;8.992;2024-01-15T13:03:46;48.28;43.39;70.82;;
84588;Laerm;74812;47.466;8.992;2024-01-15T13:06:12;47.82;43.42;61.59;;
84588;Laerm;74812;47.466;8.992;2024-01-15T13:08:38;48.88;43.63;64.93;;
84588;Laerm;74812;47.466;8.992;2024-01-15T13:11:03;46.70;43.94;56.69;;
84588;Laerm;74812;47.466;8.992;2024-01-15T13:13:28;46.22;43.77;53.87;;
84588;Laerm;74812;47.466;8.992;2024-01-15T13:15:55;46.96;43.14;57.40;;
84588;Laerm;74812;47.466;8.992;2024-01-15T13:18:21;46.11;43.04;55.57;;
84588;Laerm;74812;47.466;8.992;2024-01-15T13:20:47;47.33;43.86;67.77;;
84588;Laerm;74812;47.466;8.992;2024-01-15T13:23:12;46.69;43.24;55.86;;
84588;Laerm;74812;47.466;8.992;2024-01-15T13:25:37;50.04;43.72;72.88;;
84588;Laerm;74812;47.466;8.992;2024-01-15T13:28:06;46.25;43.34;52.07;;
84588;Laerm;74812;47.466;8.992;2024-01-15T13:30:32;46.63;43.24;55.05;;
84588;Laerm;74812;47.466;8.992;2024-01-15T13:32:57;46.83;43.80;63.15;;
84588;Laerm;74812;47.466;8.992;2024-01-15T13:35:24;54.14;43.76;72.71;;
84588;Laerm;74812;47.466;8.992;2024-01-15T13:37:49;46.92;43.72;55.58;;
84588;Laerm;74812;47.466;8.992;2024-01-15T13:40:15;53.67;44.42;69.14;;
84588;Laerm;74812;47.466;8.992;2024-01-15T13:42:48;46.61;43.54;58.09;;
84588;Laerm;74812;47.466;8.992;2024-01-15T13:45:13;49.42;44.11;62.51;;
84588;Laerm;74812;47.466;8.992;2024-01-15T13:47:40;50.23;44.07;69.63;;
84588;Laerm;74812;47.466;8.992;2024-01-15T13:50:06;48.35;43.90;69.12;;
84588;Laerm;74812;47.466;8.992;2024-01-15T13:52:32;52.99;43.90;66.53;;